Time;durP1;ratioP1;P1;durP2;ratioP2;P2;SDS_P1;SDS_P2;PMS_P1;PMS_P2;Temp;Humidity;BMP_temperature;BMP_pressure;BME280_temperature;BME280_humidity;BME280_pressure;Samples;Min_cycle;Max_cycle;Signal;HPM_P1;HPM_P2
2023/08/04 06:58:16;;;;;;;3.03;0.90;;;;;;;16.21;82.35;96143.09;2094213;28;20529;-66
2023/08/04 07:00:39;;;;;;;2.45;0.95;;;;;;;16.42;82.28;96161.75;2084372;28;20543;-66
2023/08/04 07:03:17;;;;;;;3.80;0.75;;;;;;;16.69;80.04;96155.31;2116922;27;21057;-66
2023/08/04 07:04:19;;;;;;;4.13;1.48;;;;;;;16.43;80.60;96152.84;2111180;27;20579;-67
2023/08/04 07:06:57;;;;;;;4.80;1.00;;;;;;;17.01;79.79;96159.91;2085746;28;20549;-66
2023/08/04 07:07:58;;;;;;;2.60;1.10;;;;;;;17.28;79.26;96155.09;2081523;28;20598;-67
2023/08/04 07:09:00;;;;;;;3.22;0.98;;;;;;;17.23;78.71;96157.25;2082144;28;20204;-67
2023/08/04 07:10:01;;;;;;;5.13;0.90;;;;;;;17.32;78.72;96153.03;2079376;28;20193;-67
2023/08/04 07:11:02;;;;;;;3.60;0.80;;;;;;;17.48;77.71;96154.44;2079938;28;20202;-67
2023/08/04 07:12:04;;;;;;;2.97;1.25;;;;;;;17.40;77.14;96150.63;2079790;28;20267;-67
2023/08/04 07:13:06;;;;;;;7.10;0.90;;;;;;;17.68;76.81;96158.13;2080025;28;20220;-67
2023/08/04 07:14:10;;;;;;;2.78;0.93;;;;;;;17.63;76.69;96150.56;2075236;28;20689;-67
2023/08/04 07:15:12;;;;;;;7.60;0.90;;;;;;;17.77;76.04;96157.38;2079809;28;20636;-67
2023/08/04 07:16:13;;;;;;;2.83;1.02;;;;;;;17.77;75.14;96155.56;2079846;28;20276;-67
2023/08/04 07:17:15;;;;;;;2.10;1.00;;;;;;;17.56;75.70;96155.50;2079828;28;20201;-67
2023/08/04 07:18:16;;;;;;;2.65;0.93;;;;;;;17.87;75.18;96155.66;2086540;28;20640;-67
2023/08/04 07:19:17;;;;;;;3.25;1.08;;;;;;;18.10;74.71;96150.31;2079074;28;20674;-67
2023/08/04 07:20:21;;;;;;;1.60;0.60;;;;;;;18.35;74.03;96158.84;2079597;28;20233;-67
2023/08/04 07:21:22;;;;;;;2.85;1.08;;;;;;;18.26;73.12;96160.44;2087144;28;20200;-67
2023/08/04 07:22:23;;;;;;;2.53;0.70;;;;;;;18.35;72.92;96162.31;2086916;28;20196;-67
2023/08/04 07:23:25;;;;;;;5.05;1.10;;;;;;;18.32;74.31;96152.00;2079431;28;20224;-67
2023/08/04 07:24:26;;;;;;;3.72;1.00;;;;;;;17.76;76.52;96167.09;2078534;28;20306;-67
2023/08/04 07:25:30;;;;;;;4.28;1.00;;;;;;;17.69;76.54;96160.63;2079514;28;20297;-67
2023/08/04 07:26:32;;;;;;;4.25;1.20;;;;;;;17.27;77.68;96158.69;2079207;28;20813;-67
2023/08/04 07:27:33;;;;;;;3.28;1.08;;;;;;;17.40;78.14;96163.00;2079417;28;20688;-67
2023/08/04 07:28:36;;;;;;;1.70;0.93;;;;;;;17.11;79.15;96156.41;2079410;28;20201;-67
2023/08/04 07:29:37;;;;;;;5.75;1.17;;;;;;;17.03;79.07;96164.09;2076920;28;20266;-67
2023/08/04 07:30:39;;;;;;;1.75;0.90;;;;;;;16.98;79.17;96171.53;2079331;28;20548;-66
2023/08/04 07:31:40;;;;;;;2.95;0.70;;;;;;;17.31;78.75;96164.56;2079393;28;20197;-66
2023/08/04 07:32:42;;;;;;;2.95;0.80;;;;;;;17.23;79.08;96170.44;2079581;28;20204;-66
2023/08/04 07:33:43;;;;;;;7.50;1.20;;;;;;;17.40;78.73;96166.44;2079368;28;20197;-66
2023/08/04 07:34:45;;;;;;;4.90;1.10;;;;;;;17.56;78.12;96162.56;2079066;28;20323;-66
2023/08/04 07:35:54;;;;;;;2.25;0.90;;;;;;;17.67;77.23;96165.19;2079469;28;20201;-66
2023/08/04 07:36:57;;;;;;;4.25;1.25;;;;;;;17.39;78.33;96162.13;2079504;28;20629;-66
2023/08/04 07:37:58;;;;;;;3.38;1.05;;;;;;;17.41;78.90;96170.78;2079254;28;20304;-66
2023/08/04 07:39:00;;;;;;;2.10;0.80;;;;;;;17.00;78.57;96169.63;2078888;28;20193;-66
2023/08/04 07:40:01;;;;;;;4.05;1.05;;;;;;;17.38;77.67;96175.44;2079592;28;20208;-66
2023/08/04 07:41:03;;;;;;;6.65;1.27;;;;;;;17.42;77.80;96177.72;2079507;28;20216;-66
2023/08/04 07:42:04;;;;;;;2.60;0.85;;;;;;;17.60;77.75;96175.41;2079988;28;20194;-66
2023/08/04 07:43:10;;;;;;;3.10;1.25;;;;;;;17.90;76.30;96178.31;2078833;28;20193;-66
2023/08/04 07:44:11;;;;;;;4.50;1.08;;;;;;;18.06;75.73;96172.66;2078759;28;20224;-66
2023/08/04 07:45:13;;;;;;;2.65;1.00;;;;;;;17.98;74.91;96177.72;2079464;28;20766;-67
2023/08/04 07:46:28;;;;;;;3.15;0.90;;;;;;;18.18;75.16;96170.81;2079461;28;20583;-67
2023/08/04 07:47:29;;;;;;;5.68;1.25;;;;;;;18.22;75.07;96175.72;2086706;28;20199;-67
2023/08/04 07:48:31;;;;;;;3.22;1.00;;;;;;;18.10;74.70;96176.72;2086648;28;20257;-67
2023/08/04 07:49:32;;;;;;;2.85;0.80;;;;;;;18.42;75.01;96178.50;2078630;28;20227;-67
2023/08/04 07:50:41;;;;;;;3.40;0.70;;;;;;;18.50;74.97;96177.84;2077898;28;20205;-67
2023/08/04 07:51:44;;;;;;;2.97;0.90;;;;;;;18.62;75.06;96182.09;2078740;28;20216;-67
2023/08/04 07:52:45;;;;;;;4.03;1.48;;;;;;;18.52;75.52;96181.22;2078248;28;20232;-67
2023/08/04 07:53:47;;;;;;;4.05;1.00;;;;;;;18.71;75.32;96181.31;2079403;28;20877;-67
2023/08/04 07:54:49;;;;;;;4.68;1.33;;;;;;;18.74;75.22;96178.44;2078743;28;20221;-67
2023/08/04 07:55:57;;;;;;;3.65;0.90;;;;;;;18.91;74.74;96182.28;2079378;28;20595;-67
2023/08/04 07:57:01;;;;;;;3.40;1.02;;;;;;;18.92;73.93;96178.69;2078978;28;20189;-68
2023/08/04 07:58:03;;;;;;;6.60;1.20;;;;;;;18.85;74.91;96177.50;2079304;28;20288;-67
2023/08/04 07:59:04;;;;;;;5.35;1.17;;;;;;;19.02;74.39;96180.53;2078705;28;20201;-67
2023/08/04 08:00:06;;;;;;;3.78;1.25;;;;;;;19.05;74.15;96175.00;2079566;28;20718;-67
2023/08/04 08:01:08;;;;;;;2.95;0.88;;;;;;;19.05;73.94;96175.81;2079407;28;20201;-67
2023/08/04 08:02:09;;;;;;;2.50;0.73;;;;;;;19.08;73.89;96175.56;2079423;28;20570;-67
2023/08/04 08:03:11;;;;;;;5.05;1.05;;;;;;;19.05;74.56;96182.94;2079278;28;20600;-67
2023/08/04 08:04:13;;;;;;;3.72;1.42;;;;;;;19.09;73.76;96176.38;2078840;28;20688;-67
2023/08/04 08:05:16;;;;;;;8.85;1.23;;;;;;;19.18;73.44;96186.16;2084023;28;20386;-67
2023/08/04 08:06:17;;;;;;;4.90;1.17;;;;;;;19.11;73.17;96181.53;2083093;28;20235;-67
2023/08/04 08:07:18;;;;;;;3.00;0.95;;;;;;;19.06;73.50;96181.97;2075381;28;20664;-67
2023/08/04 08:08:32;;;;;;;5.53;1.42;;;;;;;19.02;73.79;96176.09;2079398;28;20204;-67
2023/08/04 08:09:34;;;;;;;4.18;1.05;;;;;;;18.98;73.91;96179.97;2086207;28;20220;-67
2023/08/04 08:10:35;;;;;;;2.67;1.00;;;;;;;18.96;73.19;96179.25;2086748;28;20279;-67
2023/08/04 08:11:38;;;;;;;2.92;0.90;;;;;;;18.79;73.85;96175.38;2079079;28;20197;-67
2023/08/04 08:12:39;;;;;;;5.03;1.13;;;;;;;18.77;74.47;96180.78;2084713;28;20235;-67
2023/08/04 08:13:41;;;;;;;2.08;0.80;;;;;;;18.63;75.46;96186.44;2086892;28;20200;-67
2023/08/04 08:14:42;;;;;;;2.85;0.93;;;;;;;18.34;75.67;96181.78;2078555;28;20228;-67
2023/08/04 08:15:43;;;;;;;2.47;1.00;;;;;;;18.00;76.93;96186.38;2079433;28;20198;-67
2023/08/04 08:16:45;;;;;;;3.35;0.98;;;;;;;17.73;77.71;96183.19;2079079;28;20710;-67
2023/08/04 08:17:46;;;;;;;2.22;1.10;;;;;;;17.56;77.95;96183.69;2075903;28;20760;-67
2023/08/04 08:18:48;;;;;;;2.97;0.98;;;;;;;17.78;78.23;96191.56;2073668;28;20657;-67
2023/08/04 08:19:49;;;;;;;2.50;0.90;;;;;;;17.86;79.08;96187.47;2072963;28;20245;-67
2023/08/04 08:38:10;;;;;;;2.88;1.05;;;;;;;17.90;78.00;96191.53;2091146;28;20541;-66
2023/08/04 08:40:55;;;;;;;2.42;1.13;;;;;;;18.19;78.81;96185.69;2088340;27;21062;-66
2023/08/04 08:41:59;;;;;;;2.03;1.00;;;;;;;18.25;79.25;96185.19;2085731;28;20200;-67
2023/08/04 08:43:01;;;;;;;1.88;0.80;;;;;;;18.24;80.15;96173.78;2086809;28;20207;-67
2023/08/04 08:44:03;;;;;;;5.35;0.95;;;;;;;18.43;80.87;96183.63;2085016;28;20234;-67
2023/08/04 08:45:05;;;;;;;26.00;2.90;;;;;;;18.41;80.84;96179.44;2079149;28;20740;-67
2023/08/04 08:46:07;;;;;;;4.07;1.00;;;;;;;18.45;80.70;96183.53;2079317;28;20596;-66
2023/08/04 08:47:09;;;;;;;3.45;1.00;;;;;;;18.56;80.92;96182.63;2079116;28;20193;-66
2023/08/04 08:48:11;;;;;;;2.85;1.05;;;;;;;18.64;80.21;96182.81;2079222;28;20193;-66
2023/08/04 08:49:13;;;;;;;3.08;1.10;;;;;;;18.80;79.42;96178.88;2075724;28;20222;-66
2023/08/04 08:50:17;;;;;;;4.90;1.38;;;;;;;18.88;79.81;96179.03;2070963;28;20194;-66
2023/08/04 08:51:21;;;;;;;3.67;1.02;;;;;;;19.00;81.22;96175.38;2069160;28;20752;-66
2023/08/04 08:52:23;;;;;;;4.57;0.98;;;;;;;18.98;79.88;96177.34;2070072;28;20237;-66
2023/08/04 08:53:29;;;;;;;3.00;1.10;;;;;;;18.83;78.99;96176.81;2071203;28;20198;-67
2023/08/04 08:54:31;;;;;;;4.10;0.90;;;;;;;18.92;79.63;96183.16;2070663;28;20264;-66
2023/08/04 08:55:34;;;;;;;2.28;1.05;;;;;;;19.13;79.64;96179.63;2087037;28;20330;-66
2023/08/04 08:56:36;;;;;;;5.80;1.38;;;;;;;19.02;80.22;96183.16;2084750;28;20648;-66
2023/08/04 08:57:39;;;;;;;4.70;0.90;;;;;;;19.20;80.03;96178.13;2070974;28;20293;-66
2023/08/04 08:58:42;;;;;;;2.72;1.13;;;;;;;19.30;79.25;96184.28;2070711;28;20205;-66
2023/08/04 08:59:44;;;;;;;3.55;1.13;;;;;;;19.55;78.93;96177.66;2070410;28;20256;-66
2023/08/04 09:00:46;;;;;;;8.73;1.58;;;;;;;19.77;77.60;96188.16;2069736;28;20661;-66
2023/08/04 09:01:48;;;;;;;3.63;0.98;;;;;;;19.92;78.07;96192.09;2071361;28;20248;-66
2023/08/04 09:02:50;;;;;;;2.53;1.10;;;;;;;20.39;76.01;96192.28;2071385;28;20194;-66
2023/08/04 09:03:52;;;;;;;4.10;1.00;;;;;;;20.45;73.80;96192.69;2070860;28;20228;-66
2023/08/04 09:04:54;;;;;;;9.98;2.28;;;;;;;20.45;74.85;96195.34;2069073;28;20209;-66
2023/08/04 09:05:55;;;;;;;5.03;1.15;;;;;;;20.10;75.15;96194.94;2071402;28;20236;-66
2023/08/04 09:06:57;;;;;;;6.30;1.25;;;;;;;19.74;76.02;96191.91;2071152;28;20190;-66
2023/08/04 09:07:59;;;;;;;8.38;1.48;;;;;;;19.47;78.68;96190.72;2070828;28;20247;-66
2023/08/04 09:09:02;;;;;;;2.28;1.00;;;;;;;19.62;78.95;96191.19;2070941;28;20236;-66
2023/08/04 09:10:06;;;;;;;3.38;0.95;;;;;;;19.58;78.09;96200.41;2071187;28;20240;-66
2023/08/04 09:11:08;;;;;;;4.05;1.00;;;;;;;19.33;77.33;96197.22;2070358;28;20554;-66
2023/08/04 09:12:10;;;;;;;6.68;1.25;;;;;;;18.76;77.64;96192.34;2071262;28;20252;-66
2023/08/04 09:20:25;;;;;;;5.18;1.30;;;;;;;18.26;83.11;96210.66;2104281;27;20542;-66
2023/08/04 09:21:26;;;;;;;7.88;1.20;;;;;;;18.21;84.35;96202.28;2103822;28;20203;-66
2023/08/04 09:22:28;;;;;;;3.70;1.55;;;;;;;18.35;84.99;96201.97;2103123;28;20196;-66
2023/08/04 09:23:30;;;;;;;5.80;1.20;;;;;;;18.49;84.79;96208.75;2101250;28;20199;-66
2023/08/04 09:24:32;;;;;;;4.45;1.38;;;;;;;18.40;84.58;96198.94;2099789;28;20278;-66
2023/08/04 09:25:50;;;;;;;7.47;1.30;;;;;;;18.27;85.07;96202.59;2100308;28;20202;-66
2023/08/04 09:26:52;;;;;;;7.10;1.17;;;;;;;18.36;84.81;96203.66;2097727;28;20203;-66
2023/08/04 09:27:53;;;;;;;3.17;1.00;;;;;;;18.37;84.51;96196.53;2100385;28;20203;-66
2023/08/04 09:29:05;;;;;;;5.90;1.00;;;;;;;18.53;84.21;96206.69;2101107;28;20836;-66
2023/08/04 09:30:09;;;;;;;3.90;1.30;;;;;;;18.65;83.89;96200.38;2097744;28;20283;-67
2023/08/04 09:31:12;;;;;;;3.15;1.10;;;;;;;18.63;83.92;96206.72;2096504;28;20239;-66
2023/08/04 09:32:14;;;;;;;2.30;0.95;;;;;;;18.53;84.48;96206.69;2097535;28;20249;-66
2023/08/04 09:33:23;;;;;;;3.33;1.10;;;;;;;18.50;84.24;96206.91;2098104;28;20189;-66
2023/08/04 09:34:24;;;;;;;2.10;0.88;;;;;;;18.30;83.70;96206.78;2095606;28;20233;-66
2023/08/04 09:35:26;;;;;;;7.75;1.10;;;;;;;18.44;84.84;96211.75;2099883;28;20256;-68
2023/08/04 09:36:27;;;;;;;2.40;1.00;;;;;;;18.73;84.22;96211.13;2096677;28;20208;-68
2023/08/04 09:37:33;;;;;;;2.30;1.00;;;;;;;18.35;84.51;96204.59;2100497;28;20643;-66
2023/08/04 09:38:36;;;;;;;4.57;1.20;;;;;;;18.75;83.42;96203.91;2099902;28;20254;-66
2023/08/04 09:39:45;;;;;;;2.58;0.98;;;;;;;19.00;82.25;96209.75;2097374;28;20575;-66
2023/08/04 09:40:47;;;;;;;7.00;1.30;;;;;;;19.13;81.68;96211.38;2097168;28;20197;-66
2023/08/04 09:41:48;;;;;;;13.80;1.40;;;;;;;19.35;81.00;96211.19;2098126;28;20201;-66
2023/08/04 09:42:50;;;;;;;3.28;1.00;;;;;;;19.45;80.70;96205.91;2097346;28;20196;-66
2023/08/04 09:43:52;;;;;;;3.97;1.30;;;;;;;19.44;79.30;96213.97;2095050;28;20258;-69
2023/08/04 09:44:53;;;;;;;3.85;0.98;;;;;;;19.54;80.36;96209.56;2098616;28;20822;-66
2023/08/04 09:46:14;;;;;;;3.40;1.00;;;;;;;19.27;79.83;96212.81;2097270;28;20203;-66
2023/08/04 09:47:15;;;;;;;4.90;1.10;;;;;;;19.21;80.78;96222.13;2099290;28;20193;-66
2023/08/04 09:48:17;;;;;;;3.85;1.08;;;;;;;19.05;81.41;96215.50;2097387;28;20196;-66
2023/08/04 09:49:20;;;;;;;3.13;1.00;;;;;;;18.87;81.48;96220.53;2096337;28;20308;-66
2023/08/04 09:50:21;;;;;;;2.50;1.05;;;;;;;18.86;83.92;96210.09;2096573;28;20189;-66
2023/08/04 09:51:22;;;;;;;5.28;1.30;;;;;;;19.13;84.36;96212.19;2097335;28;20192;-66
2023/08/04 09:52:28;;;;;;;4.45;1.33;;;;;;;18.88;84.98;96210.78;2096852;28;20659;-66
2023/08/04 09:53:29;;;;;;;3.85;1.25;;;;;;;18.58;85.74;96207.97;2096839;28;20775;-66
2023/08/04 09:54:31;;;;;;;3.17;0.95;;;;;;;18.82;84.78;96211.31;2096869;28;20400;-66
2023/08/04 09:55:32;;;;;;;8.93;1.30;;;;;;;19.25;84.22;96216.44;2096871;28;20583;-66
2023/08/04 09:56:34;;;;;;;8.63;1.60;;;;;;;19.52;83.44;96208.88;2098267;28;20203;-66
2023/08/04 09:57:36;;;;;;;5.78;1.10;;;;;;;20.39;82.11;96209.97;2098700;28;20284;-66
2023/08/04 09:58:39;;;;;;;5.93;1.63;;;;;;;20.62;83.35;96209.69;2096722;28;20205;-66
2023/08/04 09:59:41;;;;;;;7.20;1.70;;;;;;;21.29;80.44;96210.53;2094143;28;20256;-66
2023/08/04 10:00:43;;;;;;;4.28;1.30;;;;;;;21.35;78.83;96203.78;2098947;28;20191;-66
2023/08/04 10:01:44;;;;;;;6.97;1.15;;;;;;;21.66;78.27;96193.75;2101407;28;20253;-66
2023/08/04 10:02:46;;;;;;;3.78;1.10;;;;;;;22.06;77.45;96209.44;2101340;28;20242;-67
2023/08/04 10:03:57;;;;;;;3.45;1.20;;;;;;;22.16;75.36;96215.53;2099392;28;20200;-66
2023/08/04 10:04:59;;;;;;;3.85;0.95;;;;;;;22.42;76.24;96207.63;2093403;28;20276;-67
2023/08/04 10:06:01;;;;;;;2.97;1.02;;;;;;;22.45;74.74;96210.00;2089751;28;20208;-66
2023/08/04 10:07:03;;;;;;;2.35;1.08;;;;;;;22.32;74.76;96209.50;2090567;28;20642;-67
2023/08/04 10:08:06;;;;;;;5.95;1.10;;;;;;;22.33;74.99;96208.50;2089428;28;20264;-67
2023/08/04 10:09:08;;;;;;;3.20;1.00;;;;;;;22.85;73.73;96206.97;2089859;28;20192;-67
2023/08/04 10:10:10;;;;;;;4.30;1.05;;;;;;;22.79;74.08;96197.75;2090902;28;20194;-67
2023/08/04 10:11:11;;;;;;;3.20;1.42;;;;;;;22.94;71.63;96212.19;2092618;28;20204;-67
2023/08/04 10:12:14;;;;;;;2.40;1.05;;;;;;;23.53;70.72;96210.69;2091960;28;20219;-67
2023/08/04 10:13:16;;;;;;;2.13;0.80;;;;;;;23.06;70.89;96210.09;2090715;28;20250;-69
2023/08/04 10:14:18;;;;;;;2.33;1.00;;;;;;;22.10;73.05;96201.00;2095165;28;20250;-69
2023/08/04 10:15:20;;;;;;;2.47;1.00;;;;;;;22.38;71.18;96208.09;2099006;28;20239;-69
2023/08/04 10:16:29;;;;;;;2.38;0.82;;;;;;;22.43;70.69;96203.97;2099161;28;20690;-69
2023/08/04 10:17:31;;;;;;;3.42;0.95;;;;;;;22.07;73.19;96203.97;2097457;28;20199;-69
2023/08/04 10:19:01;;;;;;;4.30;1.30;;;;;;;22.29;74.19;96202.66;2098336;28;20197;-69
2023/08/04 10:20:05;;;;;;;6.18;1.48;;;;;;;22.05;73.81;96203.28;2099590;28;20567;-69
2023/08/04 10:21:08;;;;;;;3.95;1.27;;;;;;;21.88;75.23;96196.97;2098847;28;20242;-69
2023/08/04 10:22:11;;;;;;;4.15;1.10;;;;;;;20.86;77.19;96203.94;2096873;28;20196;-69
2023/08/04 10:23:13;;;;;;;6.35;0.90;;;;;;;20.93;75.88;96210.34;2095910;28;20277;-67
2023/08/04 10:24:19;;;;;;;3.55;1.00;;;;;;;20.90;74.89;96196.53;2096742;28;20217;-67
2023/08/04 10:25:21;;;;;;;2.90;0.70;;;;;;;20.93;74.80;96193.59;2098317;28;20262;-67
2023/08/04 10:26:23;;;;;;;2.78;0.80;;;;;;;20.80;74.55;96193.94;2099018;28;20776;-67
2023/08/04 10:27:26;;;;;;;2.97;0.90;;;;;;;20.56;75.80;96197.84;2099618;28;20205;-67
2023/08/04 10:28:32;;;;;;;1.58;0.70;;;;;;;20.25;77.37;96200.63;2098815;28;20375;-67
2023/08/04 10:29:33;;;;;;;1.90;0.70;;;;;;;19.93;78.30;96198.25;2100579;28;20231;-67
2023/08/04 10:30:35;;;;;;;3.22;0.90;;;;;;;19.48;77.88;96195.06;2100420;28;20197;-67
2023/08/04 10:31:55;;;;;;;2.33;0.80;;;;;;;19.78;78.80;96205.72;2092743;28;20225;-67
2023/08/04 10:33:11;;;;;;;4.28;1.10;;;;;;;19.63;80.66;96214.06;2092078;28;20595;-67
2023/08/04 10:34:31;;;;;;;2.97;1.15;;;;;;;19.44;80.99;96212.19;2089702;28;20247;-67
2023/08/04 10:35:32;;;;;;;2.25;0.90;;;;;;;19.65;79.72;96213.91;2091487;28;20219;-67
2023/08/04 10:36:52;;;;;;;2.50;0.80;;;;;;;19.73;79.58;96220.22;2094235;28;20197;-67
2023/08/04 10:37:59;;;;;;;1.75;0.80;;;;;;;19.42;80.05;96208.84;2093697;28;20192;-67
2023/08/04 10:39:00;;;;;;;2.97;1.17;;;;;;;19.45;81.26;96218.31;2092327;28;20209;-67
2023/08/04 10:40:03;;;;;;;4.35;0.80;;;;;;;19.73;80.22;96211.41;2093892;28;20824;-67
2023/08/04 10:41:06;;;;;;;2.55;0.80;;;;;;;19.31;80.49;96216.88;2094701;28;20196;-67
2023/08/04 10:42:27;;;;;;;2.85;0.88;;;;;;;19.68;79.30;96217.13;2093292;28;20247;-67
2023/08/04 10:43:28;;;;;;;1.90;1.02;;;;;;;19.37;79.94;96203.09;2088586;28;20201;-67
2023/08/04 10:44:49;;;;;;;5.72;0.90;;;;;;;19.67;80.21;96222.56;2092976;28;20753;-66
2023/08/04 10:45:54;;;;;;;2.53;1.10;;;;;;;19.74;81.57;96221.03;2092963;28;20660;-66
2023/08/04 10:47:04;;;;;;;4.22;1.30;;;;;;;19.59;82.22;96225.88;2091342;28;20194;-66
2023/08/04 10:48:06;;;;;;;5.15;1.10;;;;;;;19.66;83.86;96229.66;2093247;28;20255;-66
2023/08/04 10:49:12;;;;;;;3.40;1.20;;;;;;;19.57;82.93;96227.84;2092100;28;20343;-66
2023/08/04 10:50:14;;;;;;;2.10;0.82;;;;;;;19.53;84.40;96227.25;2092769;28;20588;-66
2023/08/04 10:51:16;;;;;;;2.20;1.00;;;;;;;19.41;84.97;96228.31;2092120;28;20202;-66
2023/08/04 10:52:18;;;;;;;2.85;1.00;;;;;;;19.36;86.12;96239.34;2091454;28;20232;-66
2023/08/04 10:53:19;;;;;;;2.88;1.17;;;;;;;19.35;85.41;96242.94;2093331;28;20201;-66
2023/08/04 10:54:21;;;;;;;2.17;0.98;;;;;;;19.29;85.97;96232.88;2089307;28;20230;-66
2023/08/04 10:55:22;;;;;;;4.63;1.38;;;;;;;19.24;85.06;96232.44;2091330;28;20953;-66
2023/08/04 10:56:24;;;;;;;2.95;0.93;;;;;;;18.86;83.92;96228.59;2091829;28;20198;-66
2023/08/04 10:57:28;;;;;;;1.92;0.70;;;;;;;18.84;84.70;96234.03;2090984;28;20777;-66
2023/08/04 10:58:29;;;;;;;1.45;0.70;;;;;;;19.04;85.22;96236.81;2091617;28;20246;-66
2023/08/04 10:59:31;;;;;;;2.10;0.73;;;;;;;19.08;84.97;96233.78;2090978;28;20271;-66
2023/08/04 11:00:32;;;;;;;2.10;0.80;;;;;;;18.81;84.24;96236.91;2093915;28;20218;-66
2023/08/04 11:01:34;;;;;;;2.60;0.70;;;;;;;18.86;84.58;96247.13;2092413;28;20209;-66
2023/08/04 11:02:36;;;;;;;2.30;0.90;;;;;;;18.89;83.97;96246.84;2091745;28;20197;-66
2023/08/04 11:03:38;;;;;;;2.88;0.73;;;;;;;19.03;85.26;96248.34;2090913;28;20193;-66
2023/08/04 11:04:41;;;;;;;1.70;0.80;;;;;;;18.74;85.59;96244.53;2092354;28;20225;-66
2023/08/04 11:05:42;;;;;;;4.50;1.15;;;;;;;18.83;86.73;96244.72;2093091;28;20766;-65
2023/08/04 11:06:45;;;;;;;4.45;1.00;;;;;;;19.01;85.25;96256.44;2091984;28;20254;-65
2023/08/04 11:07:47;;;;;;;2.10;0.80;;;;;;;18.93;85.12;96243.84;2092262;28;20517;-66
2023/08/04 11:08:49;;;;;;;2.70;0.95;;;;;;;18.64;84.87;96237.50;2090697;28;20712;-65
2023/08/04 11:09:54;;;;;;;4.13;0.90;;;;;;;18.91;86.58;96248.41;2091237;28;20698;-65
2023/08/04 11:10:57;;;;;;;2.33;0.90;;;;;;;19.19;86.37;96248.72;2091760;28;20220;-65
2023/08/04 11:11:59;;;;;;;1.63;0.80;;;;;;;19.51;85.49;96249.56;2090985;28;20688;-65
2023/08/04 11:13:00;;;;;;;4.28;0.90;;;;;;;19.01;82.96;96253.78;2091059;28;20201;-66
2023/08/04 11:14:06;;;;;;;4.80;0.90;;;;;;;18.93;86.59;96251.78;2090483;28;20211;-66
2023/08/04 11:15:11;;;;;;;5.28;0.85;;;;;;;18.77;85.78;96254.84;2091247;28;20661;-65
2023/08/04 11:16:16;;;;;;;2.47;0.93;;;;;;;19.02;86.82;96247.53;2090922;28;20196;-66
2023/08/04 11:17:20;;;;;;;3.05;0.90;;;;;;;19.26;87.29;96254.31;2092209;28;20201;-66
2023/08/04 11:18:29;;;;;;;4.18;1.00;;;;;;;19.41;86.36;96250.38;2092068;28;20201;-65
2023/08/04 11:19:32;;;;;;;1.95;1.00;;;;;;;18.84;86.12;96244.63;2091900;28;20235;-65
2023/08/04 11:20:35;;;;;;;3.15;0.85;;;;;;;18.61;87.95;96238.59;2091863;28;20213;-66
2023/08/04 11:21:37;;;;;;;4.55;1.17;;;;;;;19.26;87.04;96238.44;2091263;28;20258;-65
2023/08/04 11:22:45;;;;;;;4.43;0.80;;;;;;;19.59;84.66;96247.06;2093023;28;20695;-65
2023/08/04 11:23:47;;;;;;;2.20;0.68;;;;;;;20.25;83.16;96235.09;2093413;28;20207;-66
2023/08/04 11:24:51;;;;;;;3.10;0.90;;;;;;;20.19;82.24;96240.97;2092861;28;20335;-65
2023/08/04 11:25:53;;;;;;;2.38;0.80;;;;;;;20.31;80.07;96242.50;2093216;28;20246;-66
2023/08/04 11:26:55;;;;;;;1.42;0.60;;;;;;;21.00;80.48;96250.41;2092554;28;20205;-65
2023/08/04 11:28:00;;;;;;;2.38;0.90;;;;;;;21.42;78.60;96247.38;2093214;28;20206;-66
2023/08/04 11:29:04;;;;;;;2.72;0.70;;;;;;;21.29;77.57;96237.09;2090352;28;20606;-66
2023/08/04 11:30:10;;;;;;;1.75;0.70;;;;;;;21.13;77.72;96250.13;2090993;28;20720;-66
2023/08/04 11:31:11;;;;;;;1.83;1.00;;;;;;;21.51;77.49;96245.66;2092367;28;20246;-66
2023/08/04 11:32:18;;;;;;;4.80;0.70;;;;;;;21.47;77.76;96241.59;2094058;28;20252;-66
2023/08/04 11:33:19;;;;;;;1.40;0.70;;;;;;;21.56;77.59;96245.22;2091342;28;20194;-66
2023/08/04 11:34:21;;;;;;;1.42;0.73;;;;;;;21.16;76.12;96249.81;2090377;28;20221;-66
2023/08/04 11:35:22;;;;;;;2.05;0.70;;;;;;;21.02;76.66;96256.44;2091573;28;20197;-66
2023/08/04 11:36:27;;;;;;;1.52;0.70;;;;;;;20.88;76.07;96258.53;2092192;28;20249;-66
2023/08/04 11:37:28;;;;;;;1.58;0.60;;;;;;;20.68;75.86;96257.72;2092185;28;20224;-66
2023/08/04 11:38:30;;;;;;;1.65;0.60;;;;;;;21.18;76.63;96254.00;2091773;28;20255;-66
2023/08/04 11:39:31;;;;;;;5.97;0.80;;;;;;;21.73;75.63;96251.59;2092158;28;20228;-66
2023/08/04 11:40:34;;;;;;;2.28;0.70;;;;;;;22.63;75.41;96252.53;2092220;28;20755;-67
2023/08/04 11:41:35;;;;;;;3.03;0.73;;;;;;;22.62;74.66;96250.03;2091717;28;20207;-66
2023/08/04 11:42:37;;;;;;;1.10;0.60;;;;;;;22.72;72.16;96247.28;2090281;28;20826;-66
2023/08/04 11:43:39;;;;;;;1.40;0.80;;;;;;;22.65;72.90;96252.38;2089302;28;20213;-66
2023/08/04 11:44:41;;;;;;;1.80;0.63;;;;;;;22.31;72.79;96250.41;2089188;28;20279;-66
2023/08/04 11:45:47;;;;;;;2.28;0.68;;;;;;;22.42;73.74;96260.00;2089969;28;20256;-67
2023/08/04 11:46:48;;;;;;;1.73;0.60;;;;;;;22.37;70.23;96246.31;2084096;28;20204;-66
2023/08/04 11:47:55;;;;;;;3.15;0.80;;;;;;;22.06;73.16;96252.78;2091251;28;20205;-66
2023/08/04 11:48:57;;;;;;;2.67;0.60;;;;;;;21.40;74.73;96256.47;2091452;28;20233;-66
2023/08/04 11:49:58;;;;;;;3.90;1.00;;;;;;;21.33;74.57;96256.19;2093082;28;20197;-66
2023/08/04 11:51:00;;;;;;;3.40;0.80;;;;;;;20.98;75.53;96257.69;2091105;28;20246;-66
2023/08/04 11:52:08;;;;;;;1.63;0.75;;;;;;;21.05;75.10;96261.44;2090728;28;20235;-66
2023/08/04 11:53:14;;;;;;;1.95;0.70;;;;;;;21.13;75.65;96260.75;2095523;28;20238;-66
2023/08/04 11:54:19;;;;;;;2.20;0.80;;;;;;;21.53;75.25;96255.16;2090439;28;20224;-66
2023/08/04 11:55:20;;;;;;;1.80;0.80;;;;;;;21.33;74.06;96259.69;2092034;28;20242;-66
2023/08/04 11:56:22;;;;;;;2.75;0.77;;;;;;;21.24;74.15;96257.88;2091695;28;20215;-66
2023/08/04 11:57:35;;;;;;;2.15;0.90;;;;;;;20.85;74.42;96264.13;2091426;28;20284;-66
2023/08/04 11:58:40;;;;;;;3.60;0.90;;;;;;;20.85;74.74;96252.69;2091986;28;20627;-66
2023/08/04 11:59:49;;;;;;;1.85;0.80;;;;;;;20.73;75.32;96252.00;2090635;28;20715;-66
2023/08/04 12:00:51;;;;;;;3.13;0.90;;;;;;;20.54;75.29;96263.44;2089674;28;20293;-66
2023/08/04 12:02:06;;;;;;;2.50;0.90;;;;;;;20.33;75.12;96261.75;2092614;28;20228;-66
2023/08/04 12:03:09;;;;;;;1.35;0.70;;;;;;;20.19;76.78;96262.16;2092196;28;20210;-66
2023/08/04 12:04:22;;;;;;;2.28;0.90;;;;;;;20.36;77.42;96268.59;2091888;28;20596;-66
2023/08/04 12:05:37;;;;;;;5.60;1.48;;;;;;;20.31;78.15;96271.66;2090355;28;20196;-66
2023/08/04 12:06:39;;;;;;;2.13;0.80;;;;;;;20.52;76.38;96274.19;2091091;28;20188;-66
2023/08/04 12:07:40;;;;;;;3.70;1.00;;;;;;;20.47;76.08;96271.13;2090989;28;20205;-66
2023/08/04 12:08:48;;;;;;;4.13;0.80;;;;;;;20.51;75.96;96275.16;2092222;28;20254;-66
2023/08/04 12:09:50;;;;;;;3.75;1.00;;;;;;;20.30;75.65;96267.34;2091542;28;20251;-66
2023/08/04 12:11:01;;;;;;;3.00;0.90;;;;;;;20.58;76.14;96266.63;2093718;28;20210;-66
2023/08/04 12:12:04;;;;;;;2.70;0.90;;;;;;;20.72;74.93;96266.22;2088924;28;20247;-66
2023/08/04 12:13:05;;;;;;;3.60;0.95;;;;;;;20.26;75.33;96271.22;2089331;28;20735;-66
2023/08/04 12:14:10;;;;;;;7.53;1.30;;;;;;;20.28;75.38;96271.94;2090551;28;20490;-66
2023/08/04 12:15:12;;;;;;;3.25;0.85;;;;;;;20.26;77.06;96273.88;2090241;28;20208;-66
2023/08/04 12:16:14;;;;;;;3.50;0.85;;;;;;;20.07;75.68;96277.34;2090570;28;20204;-66
2023/08/04 12:17:16;;;;;;;2.67;1.13;;;;;;;20.23;77.59;96277.66;2091459;28;20641;-66
2023/08/04 12:18:25;;;;;;;3.75;0.80;;;;;;;20.04;76.27;96274.97;2091370;28;20671;-66
2023/08/04 12:19:28;;;;;;;2.38;0.80;;;;;;;19.99;77.82;96271.91;2090214;28;20279;-66
2023/08/04 12:20:29;;;;;;;3.72;1.10;;;;;;;19.66;78.63;96274.69;2092736;28;20192;-66
2023/08/04 12:21:31;;;;;;;1.95;0.80;;;;;;;19.33;78.98;96281.13;2093482;28;20217;-65
2023/08/04 12:22:40;;;;;;;3.60;0.90;;;;;;;18.98;80.65;96277.00;2093668;28;20193;-65
2023/08/04 12:23:47;;;;;;;4.07;1.05;;;;;;;18.67;81.16;96274.28;2093309;28;20201;-66
2023/08/04 13:26:09;;;;;;;10.55;3.08;;;;;;;16.92;96.91;96288.03;2085452;28;20571;-65
2023/08/04 13:28:54;;;;;;;10.10;3.22;;;;;;;16.85;96.43;96286.78;2085720;28;20550;-65
2023/08/04 13:29:56;;;;;;;5.03;2.50;;;;;;;16.99;96.29;96286.63;2078906;28;20292;-65
2023/08/04 13:30:59;;;;;;;4.57;2.45;;;;;;;17.04;95.34;96288.88;2078980;28;20607;-65